createdAt,value
2023-03-14T00:00:29.334Z,9.40
2023-03-14T00:02:56.393Z,9.40
2023-03-14T00:05:23.403Z,9.40
2023-03-14T00:07:50.384Z,9.40
2023-03-14T00:10:17.504Z,9.40
2023-03-14T00:12:45.104Z,9.30
2023-03-14T00:15:12.717Z,9.20
2023-03-14T00:17:39.799Z,9.30
2023-03-14T00:20:11.284Z,9.30
2023-03-14T00:22:38.892Z,9.30
2023-03-14T00:25:06.389Z,9.30
2023-03-14T00:27:33.801Z,9.30
2023-03-14T00:30:00.917Z,9.20
2023-03-14T00:32:27.847Z,9.20
2023-03-14T00:34:54.853Z,9.20
2023-03-14T00:37:21.804Z,9.10
2023-03-14T00:39:49.503Z,9.10
2023-03-14T00:42:16.449Z,9.20
2023-03-14T00:44:43.448Z,9.20
2023-03-14T00:47:10.400Z,9.20
2023-03-14T00:49:37.419Z,9.10
2023-03-14T00:52:04.563Z,9.20
2023-03-14T00:54:31.648Z,9.20
2023-03-14T00:56:58.560Z,9.20
2023-03-14T00:59:25.656Z,9.30
2023-03-14T01:01:52.668Z,9.40
2023-03-14T01:04:19.739Z,9.50
2023-03-14T01:06:46.877Z,9.60
2023-03-14T01:09:13.841Z,9.60
2023-03-14T01:11:41.755Z,9.60
2023-03-14T01:14:08.759Z,9.50
2023-03-14T01:16:36.358Z,9.50
2023-03-14T01:19:03.751Z,9.50
2023-03-14T01:21:32.269Z,9.60
2023-03-14T01:24:00.164Z,9.60
2023-03-14T01:26:30.170Z,9.60
2023-03-14T01:28:57.610Z,9.60
2023-03-14T01:31:25.581Z,9.70
2023-03-14T01:33:53.003Z,9.70
2023-03-14T01:36:19.974Z,9.60
2023-03-14T01:38:47.673Z,9.60
2023-03-14T01:41:17.608Z,9.50
2023-03-14T01:43:45.594Z,9.60
2023-03-14T01:46:15.595Z,9.50
2023-03-14T01:48:58.944Z,9.50
2023-03-14T01:51:28.118Z,9.50
2023-03-14T01:53:58.243Z,9.40
2023-03-14T01:56:25.389Z,9.40
2023-03-14T01:58:53.626Z,9.30
2023-03-14T02:01:22.515Z,9.30
2023-03-14T02:03:54.101Z,9.20
2023-03-14T02:06:23.929Z,9.20
2023-03-14T02:08:51.636Z,9.20
2023-03-14T02:11:23.125Z,9.20
2023-03-14T02:13:59.445Z,9.10
2023-03-14T02:16:45.460Z,9.10
2023-03-14T02:19:51.607Z,9.00
2023-03-14T02:22:35.756Z,9.00
2023-03-14T02:25:30.953Z,9.00
2023-03-14T02:27:58.681Z,8.90
2023-03-14T02:30:27.203Z,8.90
2023-03-14T02:33:00.814Z,8.90
2023-03-14T02:35:57.290Z,9.00
2023-03-14T02:38:24.254Z,9.00
2023-03-14T02:40:51.795Z,9.10
2023-03-14T02:43:19.016Z,9.10
2023-03-14T02:45:52.501Z,9.10
2023-03-14T02:48:25.180Z,9.10
2023-03-14T02:50:54.829Z,9.10
2023-03-14T02:53:24.744Z,9.20
2023-03-14T02:55:52.726Z,9.20
2023-03-14T02:58:23.719Z,9.20
2023-03-14T03:00:56.968Z,9.20
2023-03-14T03:03:24.302Z,9.30
2023-03-14T03:05:52.097Z,9.30
2023-03-14T03:08:20.505Z,9.40
2023-03-14T03:10:48.766Z,9.50
2023-03-14T03:13:16.333Z,9.60
2023-03-14T03:15:44.620Z,9.50
2023-03-14T03:18:12.458Z,9.50
2023-03-14T03:20:39.527Z,9.50
2023-03-14T03:23:06.638Z,9.50
2023-03-14T03:25:33.818Z,9.50
2023-03-14T03:28:08.796Z,9.60
2023-03-14T03:30:39.262Z,9.60
2023-03-14T03:33:06.358Z,9.60
2023-03-14T03:35:33.511Z,9.60
2023-03-14T03:38:00.734Z,9.60
2023-03-14T03:40:28.518Z,9.60
2023-03-14T03:42:55.806Z,9.60
2023-03-14T03:45:23.184Z,9.60
2023-03-14T03:47:55.340Z,9.50
2023-03-14T03:50:23.627Z,9.50
2023-03-14T03:52:50.682Z,9.50
2023-03-14T03:55:17.673Z,9.50
2023-03-14T03:57:45.741Z,9.50
2023-03-14T04:00:13.801Z,9.50
2023-03-14T04:02:43.755Z,9.60
2023-03-14T04:05:14.695Z,9.60
2023-03-14T04:07:47.992Z,9.70
2023-03-14T04:10:19.384Z,9.60
2023-03-14T04:13:09.634Z,9.60
2023-03-14T04:15:38.646Z,9.60
2023-03-14T04:18:12.374Z,9.60
2023-03-14T04:20:39.397Z,9.70
2023-03-14T04:23:06.631Z,9.70
2023-03-14T04:25:33.626Z,9.70
2023-03-14T04:28:05.079Z,9.80
2023-03-14T04:30:33.284Z,9.80
2023-03-14T04:33:06.520Z,9.80
2023-03-14T04:35:36.421Z,9.90
2023-03-14T04:38:08.700Z,9.90
2023-03-14T04:40:37.949Z,9.90
2023-03-14T04:43:06.844Z,9.90
2023-03-14T04:45:34.914Z,9.80
2023-03-14T04:48:05.278Z,9.70
2023-03-14T04:50:32.513Z,9.70
2023-03-14T04:52:59.656Z,9.70
2023-03-14T04:55:26.761Z,9.70
2023-03-14T04:57:55.767Z,9.60
2023-03-14T05:00:23.632Z,9.60
2023-03-14T05:03:05.858Z,9.70
2023-03-14T05:05:50.954Z,9.70
2023-03-14T05:08:40.708Z,9.70
2023-03-14T05:11:19.371Z,9.60
2023-03-14T05:14:12.528Z,9.60
2023-03-14T05:17:12.474Z,9.60
2023-03-14T05:20:09.876Z,9.50
2023-03-14T05:22:55.372Z,9.40
2023-03-14T05:25:28.068Z,9.40
2023-03-14T05:28:25.880Z,9.40
2023-03-14T05:31:10.022Z,9.30
2023-03-14T05:34:09.342Z,9.40
2023-03-14T05:36:59.290Z,9.30
2023-03-14T05:39:55.324Z,9.30
2023-03-14T05:42:43.791Z,9.20
2023-03-14T05:45:10.943Z,9.20
2023-03-14T05:47:49.852Z,9.20
2023-03-14T05:50:24.127Z,9.20
2023-03-14T05:53:09.587Z,9.20
2023-03-14T05:55:56.610Z,9.20
2023-03-14T05:58:44.709Z,9.10
2023-03-14T06:01:46.924Z,9.20
2023-03-14T06:04:18.767Z,9.10
2023-03-14T06:06:50.768Z,9.10
2023-03-14T06:09:20.218Z,9.10
2023-03-14T06:11:47.548Z,9.10
2023-03-14T06:14:14.622Z,9.20
2023-03-14T06:16:45.417Z,9.20
2023-03-14T06:19:12.935Z,9.20
2023-03-14T06:21:40.895Z,9.30
2023-03-14T06:24:07.839Z,9.30
2023-03-14T06:26:40.874Z,9.40
2023-03-14T06:29:07.959Z,9.40
2023-03-14T06:31:35.898Z,9.40
2023-03-14T06:34:06.317Z,9.40
2023-03-14T06:36:33.893Z,9.40
2023-03-14T06:39:00.921Z,9.40
2023-03-14T06:41:31.071Z,9.40
2023-03-14T06:43:59.545Z,9.40
2023-03-14T06:46:27.415Z,9.40
2023-03-14T06:48:54.730Z,9.40
2023-03-14T06:51:21.758Z,9.50
2023-03-14T06:53:49.794Z,9.50
2023-03-14T06:56:18.370Z,9.50
2023-03-14T06:58:46.847Z,9.60
2023-03-14T07:01:27.180Z,9.50
2023-03-14T07:03:57.587Z,9.60
2023-03-14T07:06:24.660Z,9.60
2023-03-14T07:08:51.665Z,9.60
2023-03-14T07:11:19.239Z,9.60
2023-03-14T07:13:46.541Z,9.60
2023-03-14T07:16:13.702Z,9.50
2023-03-14T07:18:41.004Z,9.60
2023-03-14T07:21:08.495Z,9.60
2023-03-14T07:23:35.501Z,9.60
2023-03-14T07:26:02.558Z,9.60
2023-03-14T07:28:31.916Z,9.70
2023-03-14T07:31:08.059Z,9.70
2023-03-14T07:33:35.156Z,9.70
2023-03-14T07:36:04.597Z,9.70
2023-03-14T07:38:31.831Z,9.80
2023-03-14T07:41:31.356Z,9.70
2023-03-14T07:44:36.921Z,9.70
2023-03-14T07:47:03.902Z,9.70
2023-03-14T07:49:30.937Z,9.60
2023-03-14T07:51:57.960Z,9.60
2023-03-14T07:54:25.902Z,9.60
2023-03-14T07:56:55.598Z,9.60
2023-03-14T07:59:22.540Z,9.60
2023-03-14T08:01:49.455Z,9.60
2023-03-14T08:04:16.447Z,9.60
2023-03-14T08:06:43.386Z,9.60
2023-03-14T08:09:10.413Z,9.70
2023-03-14T08:11:37.406Z,9.60
2023-03-14T08:14:04.294Z,9.60
2023-03-14T08:16:31.302Z,9.60
2023-03-14T08:18:58.676Z,9.60
2023-03-14T08:21:25.587Z,9.60
2023-03-14T08:23:52.557Z,9.50
2023-03-14T08:26:19.453Z,9.60
2023-03-14T08:28:46.472Z,9.50
2023-03-14T08:31:13.538Z,9.50
2023-03-14T08:33:40.486Z,9.50
2023-03-14T08:36:07.731Z,9.50
2023-03-14T08:38:34.735Z,9.50
2023-03-14T08:41:02.769Z,9.50
2023-03-14T08:43:30.352Z,9.50
2023-03-14T08:46:01.427Z,9.60
2023-03-14T08:48:30.335Z,9.60
2023-03-14T08:50:58.110Z,9.70
2023-03-14T08:53:25.087Z,9.80
2023-03-14T08:55:55.517Z,9.80
2023-03-14T08:58:24.833Z,9.90
2023-03-14T09:00:52.086Z,10.00
2023-03-14T09:03:19.069Z,10.00
2023-03-14T09:05:46.094Z,10.10
2023-03-14T09:08:12.996Z,10.10
2023-03-14T09:10:39.908Z,10.10
2023-03-14T09:13:07.005Z,10.10
2023-03-14T09:15:34.008Z,10.10
2023-03-14T09:18:00.943Z,10.20
2023-03-14T09:20:27.884Z,10.20
2023-03-14T09:22:54.970Z,10.20
2023-03-14T09:25:21.971Z,10.30
2023-03-14T09:27:48.943Z,10.40
2023-03-14T09:30:15.969Z,10.40
2023-03-14T09:32:42.884Z,10.40
2023-03-14T09:35:11.058Z,10.40
2023-03-14T09:37:38.060Z,10.40
2023-03-14T09:40:11.366Z,10.40
2023-03-14T09:42:40.372Z,10.40
2023-03-14T09:45:11.395Z,10.40
2023-03-14T09:47:46.261Z,10.40
2023-03-14T09:50:20.430Z,10.40
2023-03-14T09:52:49.273Z,10.30
2023-03-14T09:55:19.015Z,10.40
2023-03-14T09:57:46.300Z,10.40
2023-03-14T10:00:21.365Z,10.40
2023-03-14T10:02:52.270Z,10.40
2023-03-14T10:05:20.498Z,10.50
2023-03-14T10:07:47.505Z,10.50
2023-03-14T10:10:21.740Z,10.60
2023-03-14T10:12:55.396Z,10.60
2023-03-14T10:15:32.316Z,10.60
2023-03-14T10:18:03.296Z,10.70
2023-03-14T10:20:40.306Z,10.70
2023-03-14T10:23:07.341Z,10.80
2023-03-14T10:25:35.787Z,10.90
2023-03-14T10:28:04.643Z,11.00
2023-03-14T10:30:45.044Z,11.10
2023-03-14T10:33:18.222Z,11.20
2023-03-14T10:35:45.461Z,11.30
2023-03-14T10:38:17.723Z,11.30
2023-03-14T10:40:54.019Z,11.40
2023-03-14T10:43:25.989Z,11.40
2023-03-14T10:45:58.991Z,11.50
2023-03-14T10:48:32.162Z,11.60
2023-03-14T10:51:04.301Z,11.70
2023-03-14T10:53:36.350Z,11.70
2023-03-14T10:56:04.092Z,11.80
2023-03-14T10:58:33.054Z,11.80
2023-03-14T11:01:04.645Z,11.90
2023-03-14T11:03:33.408Z,12.00
2023-03-14T11:06:15.950Z,12.10
2023-03-14T11:08:45.908Z,12.20
2023-03-14T11:11:27.739Z,12.20
2023-03-14T11:14:13.690Z,12.30
2023-03-14T11:16:40.579Z,12.30
2023-03-14T11:19:16.608Z,12.30
2023-03-14T11:21:49.561Z,12.30
2023-03-14T11:24:19.549Z,12.40
2023-03-14T11:27:07.895Z,12.50
2023-03-14T11:29:42.370Z,12.50
2023-03-14T11:32:32.689Z,12.70
2023-03-14T11:35:02.759Z,12.70
2023-03-14T11:37:34.914Z,12.70
2023-03-14T11:40:08.043Z,12.70
2023-03-14T11:42:35.033Z,12.70
2023-03-14T11:45:02.550Z,12.70
2023-03-14T11:47:33.485Z,12.70
2023-03-14T11:50:05.994Z,12.70
2023-03-14T11:52:44.333Z,12.70
2023-03-14T11:55:20.190Z,12.70
2023-03-14T11:57:48.321Z,12.80
2023-03-14T12:00:18.889Z,13.00
2023-03-14T12:02:58.028Z,13.00
2023-03-14T12:05:43.716Z,13.00
2023-03-14T12:08:10.740Z,13.10
2023-03-14T12:10:39.221Z,13.10
2023-03-14T12:13:08.489Z,13.10
2023-03-14T12:15:39.546Z,13.10
2023-03-14T12:18:14.917Z,13.10
2023-03-14T12:20:51.595Z,13.10
2023-03-14T12:23:18.507Z,13.20
2023-03-14T12:25:45.547Z,13.20
2023-03-14T12:28:15.472Z,13.10
2023-03-14T12:30:43.118Z,13.00
2023-03-14T12:33:10.129Z,12.90
2023-03-14T12:35:41.463Z,12.90
2023-03-14T12:38:16.057Z,12.90
2023-03-14T12:40:55.700Z,12.90
2023-03-14T12:43:27.457Z,12.90
2023-03-14T12:46:13.109Z,12.90
2023-03-14T12:48:40.673Z,12.90
2023-03-14T12:51:16.931Z,12.90
2023-03-14T12:54:02.596Z,12.80
2023-03-14T12:56:32.528Z,12.80
2023-03-14T12:59:02.585Z,12.80
2023-03-14T13:01:29.780Z,12.80
2023-03-14T13:03:58.976Z,12.80
2023-03-14T13:06:44.643Z,12.70
2023-03-14T13:09:26.984Z,12.60
2023-03-14T13:12:01.303Z,12.60
2023-03-14T13:14:32.260Z,12.60
2023-03-14T13:17:19.356Z,12.50
2023-03-14T13:19:55.840Z,12.50
2023-03-14T13:22:28.338Z,12.40
2023-03-14T13:25:02.814Z,12.40
2023-03-14T13:27:31.441Z,12.50
2023-03-14T13:29:58.393Z,12.50
2023-03-14T13:32:29.281Z,12.60
2023-03-14T13:34:59.613Z,12.60
2023-03-14T13:37:27.689Z,12.70
2023-03-14T13:39:56.623Z,12.60
2023-03-14T13:42:28.662Z,12.60
2023-03-14T13:44:57.077Z,12.50
2023-03-14T13:47:27.621Z,12.50
2023-03-14T13:49:54.782Z,12.50
2023-03-14T13:52:31.136Z,12.40
2023-03-14T13:55:00.107Z,12.40
2023-03-14T13:57:27.142Z,12.30
2023-03-14T14:00:02.027Z,12.30
2023-03-14T14:02:32.521Z,12.30
2023-03-14T14:05:00.270Z,12.30
2023-03-14T14:07:27.693Z,12.20
2023-03-14T14:09:55.330Z,12.20
2023-03-14T14:12:31.855Z,12.10
2023-03-14T14:15:04.940Z,12.10
2023-03-14T14:17:43.935Z,12.10
2023-03-14T14:20:22.830Z,12.10
2023-03-14T14:22:50.524Z,12.10
2023-03-14T14:25:17.717Z,12.10
2023-03-14T14:27:47.740Z,12.10
2023-03-14T14:30:20.666Z,12.00
2023-03-14T14:32:48.765Z,12.00
2023-03-14T14:35:25.922Z,12.00
2023-03-14T14:37:53.439Z,12.00
2023-03-14T14:40:21.944Z,11.90
2023-03-14T14:42:51.208Z,11.90
2023-03-14T14:45:19.750Z,11.90
2023-03-14T14:47:50.799Z,12.00
2023-03-14T14:50:22.752Z,12.00
2023-03-14T14:52:50.283Z,12.00
2023-03-14T14:55:20.854Z,12.00
2023-03-14T14:57:52.913Z,12.10
2023-03-14T15:00:24.156Z,12.10
2023-03-14T15:03:00.596Z,12.10
2023-03-14T15:05:28.502Z,12.20
2023-03-14T15:07:55.549Z,12.40
2023-03-14T15:10:24.114Z,12.40
2023-03-14T15:12:51.435Z,12.50
2023-03-14T15:15:18.933Z,12.60
2023-03-14T15:17:45.922Z,12.70
2023-03-14T15:20:16.963Z,12.80
2023-03-14T15:22:43.982Z,12.90
2023-03-14T15:25:15.528Z,13.00
2023-03-14T15:27:49.470Z,13.00
2023-03-14T15:30:17.134Z,13.00
2023-03-14T15:32:44.222Z,12.80
2023-03-14T15:35:11.163Z,12.70
2023-03-14T15:37:38.560Z,12.70
2023-03-14T15:40:12.781Z,12.80
2023-03-14T15:42:39.795Z,12.80
2023-03-14T15:45:07.001Z,12.80
2023-03-14T15:47:33.933Z,12.80
2023-03-14T15:50:00.872Z,12.60
2023-03-14T15:52:27.764Z,12.70
2023-03-14T15:54:54.740Z,12.70
2023-03-14T15:57:21.619Z,12.70
2023-03-14T15:59:48.690Z,12.60
2023-03-14T16:02:15.716Z,12.40
2023-03-14T16:04:42.677Z,12.30
2023-03-14T16:07:09.645Z,12.30
2023-03-14T16:09:36.581Z,12.30
2023-03-14T16:12:05.946Z,12.30
2023-03-14T16:14:33.000Z,12.30
2023-03-14T16:17:00.412Z,12.30
2023-03-14T16:19:31.855Z,12.30
2023-03-14T16:21:58.837Z,12.30
2023-03-14T16:24:25.835Z,12.30
2023-03-14T16:26:52.777Z,12.30
2023-03-14T16:29:19.756Z,12.30
2023-03-14T16:31:47.412Z,12.20
2023-03-14T16:34:14.480Z,12.20
2023-03-14T16:36:41.500Z,12.20
2023-03-14T16:39:08.445Z,12.10
2023-03-14T16:41:35.440Z,12.10
2023-03-14T16:44:02.476Z,12.10
2023-03-14T16:46:30.572Z,12.10
2023-03-14T16:48:57.906Z,12.00
2023-03-14T16:51:24.880Z,12.00
2023-03-14T16:53:51.852Z,11.90
2023-03-14T16:56:18.988Z,11.80
2023-03-14T16:58:46.069Z,11.70
2023-03-14T17:01:13.953Z,11.60
2023-03-14T17:03:41.997Z,11.50
2023-03-14T17:06:11.377Z,11.40
2023-03-14T17:08:38.273Z,11.40
2023-03-14T17:11:05.345Z,11.30
2023-03-14T17:13:32.451Z,11.20
2023-03-14T17:16:00.050Z,11.20
2023-03-14T17:18:28.095Z,11.10
2023-03-14T17:20:56.051Z,11.00
2023-03-14T17:23:23.779Z,11.00
2023-03-14T17:25:51.076Z,10.90
2023-03-14T17:28:18.851Z,10.80
2023-03-14T17:30:45.824Z,10.80
2023-03-14T17:33:12.968Z,10.80
2023-03-14T17:35:40.070Z,10.80
2023-03-14T17:38:07.202Z,10.80
2023-03-14T17:40:34.298Z,10.80
2023-03-14T17:43:01.246Z,10.70
2023-03-14T17:45:28.191Z,10.70
2023-03-14T17:47:55.193Z,10.70
2023-03-14T17:50:22.143Z,10.70
2023-03-14T17:52:49.081Z,10.70
2023-03-14T17:55:16.037Z,10.80
2023-03-14T17:57:45.023Z,10.80
2023-03-14T18:00:13.302Z,10.90
2023-03-14T18:02:43.200Z,10.80
2023-03-14T18:05:10.634Z,10.80
2023-03-14T18:07:38.191Z,10.80
2023-03-14T18:10:06.127Z,10.80
2023-03-14T18:12:33.111Z,10.80
2023-03-14T18:15:00.165Z,10.70
2023-03-14T18:17:27.164Z,10.70
2023-03-14T18:19:55.939Z,10.70
2023-03-14T18:22:22.829Z,10.70
2023-03-14T18:24:50.016Z,10.70
2023-03-14T18:27:18.080Z,10.70
2023-03-14T18:29:45.092Z,10.70
2023-03-14T18:32:12.436Z,10.70
2023-03-14T18:34:39.381Z,10.60
2023-03-14T18:37:06.377Z,10.50
2023-03-14T18:39:33.297Z,10.50
2023-03-14T18:42:00.199Z,10.40
2023-03-14T18:44:27.137Z,10.40
2023-03-14T18:46:54.215Z,10.40
2023-03-14T18:49:21.686Z,10.40
2023-03-14T18:51:48.971Z,10.30
2023-03-14T18:54:15.958Z,10.40
2023-03-14T18:56:42.869Z,10.40
2023-03-14T18:59:10.531Z,10.40
2023-03-14T19:01:37.933Z,10.40
2023-03-14T19:04:05.232Z,10.40
2023-03-14T19:06:33.041Z,10.40
2023-03-14T19:09:00.714Z,10.30
2023-03-14T19:11:28.003Z,10.30
2023-03-14T19:13:55.217Z,10.20
2023-03-14T19:16:22.668Z,10.20
2023-03-14T19:18:49.805Z,10.20
2023-03-14T19:21:25.280Z,10.20
2023-03-14T19:23:52.272Z,10.20
2023-03-14T19:26:19.280Z,10.20
2023-03-14T19:28:46.163Z,10.20
2023-03-14T19:31:13.225Z,10.30
2023-03-14T19:33:40.288Z,10.30
2023-03-14T19:36:07.662Z,10.30
2023-03-14T19:38:34.570Z,10.40
2023-03-14T19:41:01.479Z,10.40
2023-03-14T19:43:28.459Z,10.40
2023-03-14T19:45:55.873Z,10.40
2023-03-14T19:48:30.228Z,10.40
2023-03-14T19:50:59.749Z,10.30
2023-03-14T19:53:26.743Z,10.20
2023-03-14T19:55:53.706Z,9.20
2023-03-14T19:58:21.922Z,8.50
2023-03-14T20:00:48.980Z,8.30
2023-03-14T20:03:15.900Z,8.10
2023-03-14T20:05:44.871Z,8.10
2023-03-14T20:08:11.812Z,7.90
2023-03-14T20:10:38.846Z,7.90
2023-03-14T20:13:15.572Z,7.80
2023-03-14T20:15:47.912Z,7.70
2023-03-14T20:18:14.867Z,7.50
2023-03-14T20:20:41.850Z,7.50
2023-03-14T20:23:09.374Z,7.40
2023-03-14T20:25:36.476Z,7.20
2023-03-14T20:28:04.375Z,7.10
2023-03-14T20:30:31.505Z,6.90
2023-03-14T20:32:58.669Z,6.80
2023-03-14T20:35:25.877Z,6.40
2023-03-14T20:37:53.847Z,6.40
2023-03-14T20:40:21.141Z,6.00
2023-03-14T20:42:48.036Z,5.70
2023-03-14T20:45:15.108Z,5.40
2023-03-14T20:47:42.553Z,5.20
2023-03-14T20:50:10.167Z,5.20
2023-03-14T20:52:37.061Z,5.00
2023-03-14T20:55:04.243Z,4.80
2023-03-14T20:57:31.549Z,4.70
2023-03-14T20:59:58.628Z,4.50
2023-03-14T21:05:10.274Z,4.30
2023-03-14T21:07:41.635Z,4.50
2023-03-14T21:10:12.934Z,4.40
2023-03-14T21:12:40.011Z,4.20
2023-03-14T21:15:07.860Z,4.30
2023-03-14T21:17:34.782Z,4.30
2023-03-14T21:20:01.762Z,4.30
2023-03-14T21:22:29.657Z,4.20
2023-03-14T21:24:56.736Z,4.20
2023-03-14T21:27:23.771Z,4.10
2023-03-14T21:29:50.728Z,4.20
2023-03-14T21:32:18.285Z,4.10
2023-03-14T21:34:45.313Z,4.20
2023-03-14T21:37:12.204Z,4.10
2023-03-14T21:39:39.283Z,4.10
2023-03-14T21:42:06.295Z,4.10
2023-03-14T21:44:37.311Z,4.10
2023-03-14T21:47:08.161Z,4.10
2023-03-14T21:49:38.315Z,4.00
2023-03-14T21:52:06.306Z,3.90
2023-03-14T21:54:33.968Z,4.00
2023-03-14T21:57:01.821Z,3.90
2023-03-14T21:59:29.241Z,3.80
2023-03-14T22:01:56.411Z,3.80
2023-03-14T22:04:34.632Z,3.90
2023-03-14T22:07:05.823Z,3.90
2023-03-14T22:09:33.548Z,3.90
2023-03-14T22:12:00.644Z,3.90
2023-03-14T22:14:27.610Z,3.90
2023-03-14T22:16:54.680Z,4.00
2023-03-14T22:19:22.220Z,3.80
2023-03-14T22:21:49.277Z,3.80
2023-03-14T22:24:16.177Z,3.90
2023-03-14T22:26:43.130Z,4.00
2023-03-14T22:29:10.186Z,3.90
2023-03-14T22:31:37.132Z,3.90
2023-03-14T22:34:04.033Z,4.00
2023-03-14T22:36:30.988Z,3.90
2023-03-14T22:38:58.520Z,3.80
2023-03-14T22:41:25.438Z,3.70
2023-03-14T22:43:52.507Z,3.80
2023-03-14T22:46:19.382Z,3.70
2023-03-14T22:48:46.270Z,3.80
2023-03-14T22:51:13.756Z,3.90
2023-03-14T22:53:40.722Z,3.80
2023-03-14T22:56:08.412Z,3.80
2023-03-14T22:58:35.536Z,3.80
2023-03-14T23:01:02.621Z,3.80
2023-03-14T23:03:29.574Z,3.80
2023-03-14T23:05:56.693Z,3.70
2023-03-14T23:08:23.770Z,3.80
2023-03-14T23:10:53.425Z,3.80
2023-03-14T23:13:20.357Z,3.70
2023-03-14T23:15:47.244Z,3.80
2023-03-14T23:18:14.199Z,3.80
2023-03-14T23:20:43.188Z,3.90
2023-03-14T23:23:13.780Z,3.90
2023-03-14T23:25:52.878Z,4.00
2023-03-14T23:28:23.296Z,3.90
2023-03-14T23:30:54.454Z,3.90
2023-03-14T23:33:22.259Z,3.90
2023-03-14T23:35:49.296Z,3.80
2023-03-14T23:38:16.321Z,3.70
2023-03-14T23:40:43.931Z,3.70
2023-03-14T23:43:10.866Z,3.70
2023-03-14T23:45:37.783Z,3.80
2023-03-14T23:48:05.145Z,3.80
2023-03-14T23:50:34.790Z,3.80
2023-03-14T23:53:01.871Z,3.70
2023-03-14T23:55:28.827Z,3.70
2023-03-14T23:57:55.739Z,3.70
